Time;durP1;ratioP1;P1;durP2;ratioP2;P2;SDS_P1;SDS_P2;PMS_P1;PMS_P2;Temp;Humidity;BMP_temperature;BMP_pressure;BME280_temperature;BME280_humidity;BME280_pressure;Samples;Min_cycle;Max_cycle;Signal;HPM_P1;HPM_P2
2022/11/23 00:00:22;;;;;;;1.63;1.38;;;;;;;20.47;40.49;99544.13;5026871;28;20037;-68
2022/11/23 00:02:58;;;;;;;2.75;1.60;;;;;;;20.46;40.34;99541.69;5030429;28;20048;-69
2022/11/23 00:05:24;;;;;;;3.30;1.95;;;;;;;20.43;40.56;99536.81;5024449;28;20574;-68
2022/11/23 00:07:50;;;;;;;2.42;1.73;;;;;;;20.40;40.67;99538.03;5022992;28;20068;-68
2022/11/23 00:10:16;;;;;;;3.45;2.03;;;;;;;20.41;40.72;99544.97;5028860;28;20030;-68
2022/11/23 00:12:42;;;;;;;2.55;1.80;;;;;;;20.46;40.51;99547.78;5030798;28;20115;-69
2022/11/23 00:15:11;;;;;;;2.83;1.85;;;;;;;20.46;40.62;99544.31;5025656;28;20042;-69
2022/11/23 00:17:36;;;;;;;2.22;1.92;;;;;;;20.41;40.83;99542.31;5026302;28;20478;-69
2022/11/23 00:20:03;;;;;;;3.55;1.92;;;;;;;20.40;40.84;99539.88;5026095;28;20034;-68
2022/11/23 00:22:29;;;;;;;4.57;2.03;;;;;;;20.43;40.78;99542.09;5026286;28;20098;-68
2022/11/23 00:24:54;;;;;;;3.30;1.98;;;;;;;20.45;40.49;99538.22;5024290;28;20037;-68
2022/11/23 00:27:20;;;;;;;2.15;1.52;;;;;;;20.43;40.48;99545.56;5021719;28;20075;-69
2022/11/23 00:29:45;;;;;;;2.95;1.92;;;;;;;20.43;40.60;99548.22;5026657;28;20038;-68
2022/11/23 00:32:10;;;;;;;2.70;1.88;;;;;;;20.38;40.88;99544.56;5032147;28;20522;-69
2022/11/23 00:34:36;;;;;;;4.93;1.90;;;;;;;20.40;40.77;99555.72;5027081;28;20041;-69
2022/11/23 00:37:02;;;;;;;2.95;1.70;;;;;;;20.37;40.62;99549.03;5022862;28;20056;-68
2022/11/23 00:39:27;;;;;;;2.05;1.70;;;;;;;20.43;40.70;99550.84;5026568;28;20041;-69
2022/11/23 00:41:53;;;;;;;1.85;1.40;;;;;;;20.45;40.54;99551.44;5027696;28;20411;-71
2022/11/23 00:44:19;;;;;;;2.15;1.90;;;;;;;20.43;40.69;99555.34;5029070;28;20033;-69
2022/11/23 00:46:44;;;;;;;2.80;2.03;;;;;;;20.39;41.10;99544.34;5025358;28;20042;-69
2022/11/23 00:49:10;;;;;;;2.75;1.80;;;;;;;20.34;41.02;99540.72;5026557;28;20147;-68
2022/11/23 00:51:36;;;;;;;2.97;1.90;;;;;;;20.41;40.84;99546.81;5030240;28;20124;-69
2022/11/23 00:54:05;;;;;;;3.75;1.80;;;;;;;20.38;40.90;99552.50;5027755;28;20141;-69
2022/11/23 00:56:32;;;;;;;2.38;1.73;;;;;;;20.31;40.96;99547.25;5031675;28;20037;-69
2022/11/23 00:58:59;;;;;;;2.38;1.73;;;;;;;20.29;40.84;99546.66;5030335;28;20045;-68
2022/11/23 01:01:28;;;;;;;2.08;1.83;;;;;;;20.30;40.97;99548.28;5031537;28;20439;-70
2022/11/23 01:03:57;;;;;;;3.70;1.92;;;;;;;20.39;40.94;99559.41;5028391;28;20045;-68
2022/11/23 01:06:25;;;;;;;3.25;1.65;;;;;;;20.35;40.94;99552.94;5031233;28;20051;-69
2022/11/23 01:08:53;;;;;;;2.22;1.58;;;;;;;20.30;41.01;99550.13;5028970;28;20424;-68
2022/11/23 01:11:21;;;;;;;;;;;;;;;20.36;40.88;99558.00;5025317;28;20641;-69
2022/11/23 01:13:47;;;;;;;2.13;1.63;;;;;;;20.32;41.04;99553.34;5028257;28;19917;-69
2022/11/23 01:16:24;;;;;;;2.33;1.95;;;;;;;20.28;41.28;99555.59;5029974;28;20037;-69
2022/11/23 01:18:57;;;;;;;2.08;1.83;;;;;;;20.34;41.04;99562.69;5027269;28;20040;-68
2022/11/23 01:21:24;;;;;;;1.90;1.63;;;;;;;20.36;40.95;99560.66;5030636;28;20028;-69
2022/11/23 01:23:50;;;;;;;2.38;1.70;;;;;;;20.35;41.13;99559.03;5028874;28;20037;-69
2022/11/23 01:26:16;;;;;;;2.83;1.88;;;;;;;20.34;40.90;99560.06;5031772;28;20045;-69
2022/11/23 01:28:42;;;;;;;3.53;1.73;;;;;;;20.36;40.88;99565.13;5031337;28;20423;-68
2022/11/23 01:31:14;;;;;;;2.10;1.90;;;;;;;20.42;40.93;99566.94;5032443;28;20053;-69
2022/11/23 01:33:43;;;;;;;2.30;1.70;;;;;;;20.32;41.10;99564.75;5030287;28;20849;-69
2022/11/23 01:36:12;;;;;;;3.30;1.80;;;;;;;20.23;41.24;99563.38;5031133;28;20053;-68
2022/11/23 01:38:39;;;;;;;2.17;1.60;;;;;;;20.31;41.01;99565.78;5035063;28;20437;-69
2022/11/23 01:41:06;;;;;;;1.73;1.60;;;;;;;20.27;41.23;99571.66;5028440;28;20028;-69
2022/11/23 01:43:32;;;;;;;2.80;1.80;;;;;;;20.32;41.13;99567.38;5042097;28;20037;-68
2022/11/23 01:45:59;;;;;;;3.22;1.80;;;;;;;20.36;40.93;99560.66;5027581;28;20042;-68
2022/11/23 01:48:34;;;;;;;1.73;1.63;;;;;;;20.29;41.14;99565.19;5028628;28;20071;-68
2022/11/23 01:51:02;;;;;;;3.63;1.95;;;;;;;20.32;41.09;99574.50;5038937;28;20074;-68
2022/11/23 01:53:28;;;;;;;2.30;1.70;;;;;;;20.34;40.94;99569.81;5038513;28;20037;-69
2022/11/23 01:55:58;;;;;;;2.75;1.48;;;;;;;20.26;41.26;99570.84;5039914;28;20553;-68
2022/11/23 01:58:25;;;;;;;2.08;1.75;;;;;;;20.21;41.27;99570.69;5035197;28;20060;-69
2022/11/23 02:00:50;;;;;;;1.83;1.73;;;;;;;20.29;41.17;99574.91;5035204;28;20493;-68
2022/11/23 02:03:17;;;;;;;2.20;1.60;;;;;;;20.31;41.04;99568.41;5032994;28;20041;-69
2022/11/23 02:05:46;;;;;;;3.47;2.00;;;;;;;20.31;41.08;99567.59;5025747;28;20041;-68
2022/11/23 02:08:16;;;;;;;3.25;1.83;;;;;;;20.26;41.16;99570.06;5026655;28;20399;-68
2022/11/23 02:10:44;;;;;;;3.00;1.77;;;;;;;20.19;41.03;99556.88;5017112;28;20090;-68
2022/11/23 02:13:11;;;;;;;3.20;1.73;;;;;;;20.20;41.26;99572.53;5025422;28;20087;-69
2022/11/23 02:15:38;;;;;;;2.78;1.85;;;;;;;20.25;41.20;99574.53;5027805;28;20140;-69
2022/11/23 02:18:14;;;;;;;2.05;1.50;;;;;;;20.26;41.17;99576.16;5029729;28;20499;-69
2022/11/23 02:20:40;;;;;;;3.25;1.92;;;;;;;20.34;41.11;99580.38;5027600;28;20044;-68
2022/11/23 02:23:17;;;;;;;3.47;1.48;;;;;;;20.31;40.92;99581.63;5030592;28;20411;-69
2022/11/23 02:25:43;;;;;;;2.85;1.95;;;;;;;20.26;41.27;99581.44;5028860;28;20995;-68
2022/11/23 02:28:11;;;;;;;4.65;2.10;;;;;;;20.26;41.24;99584.06;5025284;28;20044;-69
2022/11/23 02:30:39;;;;;;;2.83;1.77;;;;;;;20.26;41.22;99586.72;5027139;28;20387;-68
2022/11/23 02:33:05;;;;;;;2.25;1.70;;;;;;;20.26;41.20;99585.91;5032121;28;20049;-68
2022/11/23 02:35:32;;;;;;;3.60;1.88;;;;;;;20.25;41.15;99582.47;5042648;28;20140;-69
2022/11/23 02:38:00;;;;;;;2.33;1.73;;;;;;;20.26;41.07;99583.28;5032697;28;20083;-69
2022/11/23 02:40:34;;;;;;;2.92;1.63;;;;;;;20.26;41.29;99585.91;5031991;28;20068;-68
2022/11/23 02:43:00;;;;;;;2.90;1.70;;;;;;;20.25;41.19;99584.28;5029631;28;20117;-69
2022/11/23 02:45:30;;;;;;;1.77;1.52;;;;;;;20.24;41.16;99586.13;5026143;28;20037;-68
2022/11/23 02:47:58;;;;;;;2.38;1.60;;;;;;;20.15;41.37;99590.06;5027497;28;20040;-69
2022/11/23 02:50:24;;;;;;;1.95;1.63;;;;;;;20.18;41.40;99594.91;5024909;28;20065;-69
2022/11/23 02:52:49;;;;;;;2.13;1.92;;;;;;;20.17;41.16;99593.28;5026859;28;20033;-68
2022/11/23 02:55:15;;;;;;;2.58;1.63;;;;;;;20.19;41.26;99593.88;5025679;28;20549;-68
2022/11/23 02:57:41;;;;;;;1.88;1.55;;;;;;;20.26;41.55;99593.84;5029289;28;20139;-68
2022/11/23 03:00:09;;;;;;;2.92;1.90;;;;;;;20.14;41.36;99591.88;5008883;28;20037;-68
2022/11/23 03:02:35;;;;;;;3.95;1.98;;;;;;;20.16;41.35;99589.84;5023278;28;20033;-69
2022/11/23 03:05:00;;;;;;;3.83;1.80;;;;;;;20.16;41.39;99594.31;5030360;28;22261;-69
2022/11/23 03:07:26;;;;;;;2.58;1.70;;;;;;;20.19;41.30;99596.53;5024760;28;20044;-68
2022/11/23 03:09:51;;;;;;;2.75;1.63;;;;;;;20.20;41.27;99590.22;5043022;28;20033;-68
2022/11/23 03:12:18;;;;;;;1.50;1.40;;;;;;;20.14;41.30;99601.66;5032276;28;20041;-68
2022/11/23 03:14:44;;;;;;;3.03;1.70;;;;;;;20.23;41.18;99601.19;5035850;28;20041;-69
2022/11/23 03:17:10;;;;;;;1.77;1.65;;;;;;;20.30;41.09;99605.63;5031559;28;20586;-68
2022/11/23 03:19:39;;;;;;;2.05;1.55;;;;;;;20.15;40.92;99588.22;5021908;28;20037;-68
2022/11/23 03:22:05;;;;;;;2.13;1.63;;;;;;;20.15;41.28;99601.44;5024867;28;20032;-68
2022/11/23 03:24:31;;;;;;;2.25;1.58;;;;;;;20.11;41.47;99594.97;5021341;28;20040;-68
2022/11/23 03:26:59;;;;;;;2.65;1.50;;;;;;;20.14;41.44;99594.53;5030800;28;20053;-68
2022/11/23 03:29:25;;;;;;;2.20;1.83;;;;;;;20.12;41.33;99601.88;5036925;28;20053;-69
2022/11/23 03:31:53;;;;;;;2.78;1.67;;;;;;;20.10;41.47;99597.78;5028501;28;20087;-68
2022/11/23 03:34:19;;;;;;;3.05;1.70;;;;;;;20.11;41.32;99608.16;5035298;28;20047;-69
2022/11/23 03:36:46;;;;;;;2.25;1.73;;;;;;;20.05;41.51;99598.44;5027512;28;22219;-68
2022/11/23 03:39:13;;;;;;;1.83;1.48;;;;;;;20.14;41.53;99610.38;5032369;28;20419;-68
2022/11/23 03:41:57;;;;;;;1.92;1.40;;;;;;;20.09;41.50;99615.47;5024850;28;20044;-69
2022/11/23 03:44:28;;;;;;;4.03;1.50;;;;;;;20.18;41.30;99610.78;5023654;28;20041;-68
2022/11/23 03:46:54;;;;;;;2.03;1.58;;;;;;;20.26;40.91;99612.34;5029893;28;20422;-69
2022/11/23 03:49:20;;;;;;;1.45;1.35;;;;;;;20.14;41.41;99620.16;5027811;28;20043;-68
2022/11/23 03:51:45;;;;;;;2.17;1.70;;;;;;;20.17;41.36;99615.25;5026643;28;20048;-68
2022/11/23 03:54:11;;;;;;;2.33;1.70;;;;;;;20.18;41.32;99616.88;5031122;28;20037;-68
2022/11/23 03:56:37;;;;;;;2.15;1.70;;;;;;;20.18;41.09;99616.88;5026571;28;20124;-68
2022/11/23 03:59:02;;;;;;;3.28;1.98;;;;;;;20.16;41.53;99615.47;5024933;28;20045;-69
2022/11/23 04:01:28;;;;;;;3.33;1.77;;;;;;;20.13;41.46;99613.25;5028669;28;20056;-69
2022/11/23 04:03:59;;;;;;;4.00;1.83;;;;;;;20.14;41.31;99612.22;5028818;28;20422;-68
2022/11/23 04:06:36;;;;;;;1.50;1.40;;;;;;;20.07;41.58;99614.88;5028688;28;20047;-69
2022/11/23 04:09:11;;;;;;;3.25;1.75;;;;;;;20.15;41.34;99609.38;5043594;28;20048;-68
2022/11/23 04:11:57;;;;;;;2.20;1.67;;;;;;;20.11;41.39;99615.28;5026916;28;20052;-68
2022/11/23 04:14:23;;;;;;;2.08;1.45;;;;;;;20.16;41.30;99612.81;5027428;28;20398;-68
2022/11/23 04:16:49;;;;;;;1.73;1.52;;;;;;;20.09;41.46;99618.13;5028628;28;20040;-68
2022/11/23 04:19:15;;;;;;;2.53;1.50;;;;;;;20.13;41.51;99618.53;5025852;28;20048;-68
2022/11/23 04:21:41;;;;;;;1.75;1.42;;;;;;;20.12;41.51;99622.19;5030117;28;20065;-68
2022/11/23 04:24:07;;;;;;;2.95;1.75;;;;;;;20.12;41.50;99624.84;5029643;28;20890;-68
2022/11/23 04:26:35;;;;;;;1.60;1.50;;;;;;;20.13;41.46;99619.34;5008875;28;20536;-68
2022/11/23 04:29:00;;;;;;;2.75;1.70;;;;;;;20.06;41.61;99617.72;5030189;28;20033;-68
2022/11/23 04:31:27;;;;;;;2.67;1.83;;;;;;;20.06;41.47;99618.53;5029290;28;20045;-68
2022/11/23 04:34:03;;;;;;;2.13;1.92;;;;;;;20.07;41.51;99614.88;5030207;28;20043;-68
2022/11/23 04:36:29;;;;;;;2.13;1.50;;;;;;;20.09;41.52;99618.13;5027415;28;20037;-68
2022/11/23 04:38:55;;;;;;;2.47;1.65;;;;;;;20.12;41.54;99615.06;5028037;28;20045;-68
2022/11/23 04:41:32;;;;;;;2.63;1.95;;;;;;;20.17;41.33;99617.09;5030408;28;21026;-68
2022/11/23 04:43:58;;;;;;;1.95;1.73;;;;;;;20.06;41.53;99621.19;5027706;28;20052;-69
2022/11/23 04:46:24;;;;;;;4.35;2.33;;;;;;;20.03;41.63;99618.16;5020600;28;20034;-69
2022/11/23 04:48:50;;;;;;;2.00;1.55;;;;;;;20.11;41.48;99623.22;5030400;28;20041;-68
2022/11/23 04:51:16;;;;;;;3.03;1.58;;;;;;;20.07;41.57;99627.28;5035364;28;20552;-69
2022/11/23 04:53:42;;;;;;;1.52;1.35;;;;;;;20.05;41.70;99621.41;5045229;28;20033;-68
2022/11/23 04:56:08;;;;;;;2.10;1.60;;;;;;;20.14;41.54;99620.97;5032995;28;20059;-68
2022/11/23 04:58:37;;;;;;;4.18;1.63;;;;;;;20.06;41.47;99623.00;5017730;28;20045;-68
2022/11/23 05:01:04;;;;;;;3.55;1.90;;;;;;;20.06;41.58;99628.31;5025062;28;20041;-68
2022/11/23 05:03:33;;;;;;;2.75;1.80;;;;;;;20.12;41.47;99630.94;5032922;28;20037;-69
2022/11/23 05:06:02;;;;;;;3.45;2.00;;;;;;;20.06;41.63;99623.81;5047283;28;20044;-68
2022/11/23 05:08:36;;;;;;;2.13;1.60;;;;;;;20.05;41.63;99626.69;5031553;28;20032;-68
2022/11/23 05:11:22;;;;;;;2.88;1.83;;;;;;;20.02;41.55;99621.81;5028031;28;20153;-68
2022/11/23 05:13:48;;;;;;;1.88;1.60;;;;;;;20.04;41.71;99635.63;5032376;28;20037;-68
2022/11/23 05:16:14;;;;;;;2.33;1.48;;;;;;;20.05;41.68;99634.59;5028915;28;20099;-68
2022/11/23 05:18:40;;;;;;;3.50;1.65;;;;;;;20.05;41.63;99629.31;5026862;28;20120;-68
2022/11/23 05:21:06;;;;;;;3.78;2.15;;;;;;;20.11;41.51;99637.25;5029641;28;20037;-68
2022/11/23 05:23:31;;;;;;;3.25;1.70;;;;;;;20.03;41.72;99629.53;5026672;28;20071;-68
2022/11/23 05:25:58;;;;;;;2.13;1.67;;;;;;;19.98;41.72;99629.38;5026436;28;20109;-69
2022/11/23 05:28:23;;;;;;;2.17;1.90;;;;;;;19.99;41.77;99636.28;5040900;28;20034;-68
2022/11/23 05:30:49;;;;;;;1.70;1.50;;;;;;;20.02;41.84;99640.31;5027473;28;20757;-68
2022/11/23 05:33:15;;;;;;;1.90;1.70;;;;;;;19.98;41.77;99632.00;5030302;28;20047;-68
2022/11/23 05:35:42;;;;;;;2.25;1.80;;;;;;;19.98;41.70;99639.94;5044971;28;20069;-69
2022/11/23 05:38:07;;;;;;;2.25;1.50;;;;;;;20.02;41.65;99641.13;5029859;28;20751;-68
2022/11/23 05:40:33;;;;;;;2.20;2.00;;;;;;;20.06;41.65;99642.31;5024052;28;20037;-68
2022/11/23 05:43:01;;;;;;;2.55;1.90;;;;;;;19.97;41.74;99637.50;5040061;28;20063;-68
2022/11/23 05:45:28;;;;;;;1.70;1.52;;;;;;;20.09;41.50;99644.53;5029226;28;20067;-68
2022/11/23 05:47:57;;;;;;;4.45;2.17;;;;;;;19.96;41.60;99627.97;5028015;28;20076;-68
2022/11/23 05:50:51;;;;;;;2.60;1.85;;;;;;;19.95;41.83;99652.75;5030742;28;20037;-68
2022/11/23 05:53:25;;;;;;;1.90;1.70;;;;;;;20.05;41.63;99661.03;5046135;28;20042;-68
2022/11/23 05:56:00;;;;;;;2.55;1.85;;;;;;;20.00;41.77;99650.28;5027007;28;20037;-68
2022/11/23 05:58:28;;;;;;;3.13;1.80;;;;;;;19.97;41.81;99651.53;5028909;28;20087;-68
2022/11/23 06:00:58;;;;;;;3.38;1.90;;;;;;;19.97;41.81;99653.34;5040015;28;20045;-68
2022/11/23 06:03:25;;;;;;;3.08;1.90;;;;;;;20.02;41.83;99650.88;5029980;28;20132;-68
2022/11/23 06:05:51;;;;;;;2.00;1.77;;;;;;;20.03;41.78;99652.50;5029685;28;20032;-68
2022/11/23 06:08:24;;;;;;;1.88;1.73;;;;;;;20.08;41.67;99652.69;5042950;28;20095;-68
2022/11/23 06:10:50;;;;;;;2.40;1.90;;;;;;;19.99;41.81;99643.38;5027728;28;20041;-68
2022/11/23 06:13:16;;;;;;;1.83;1.70;;;;;;;20.10;41.67;99656.75;5031344;28;20677;-69
2022/11/23 06:15:43;;;;;;;4.55;1.73;;;;;;;20.02;41.84;99654.34;5030259;28;20044;-68
2022/11/23 06:18:09;;;;;;;2.55;1.73;;;;;;;20.12;41.64;99660.00;5029062;28;20407;-68
2022/11/23 06:20:43;;;;;;;4.82;1.92;;;;;;;20.10;41.82;99656.75;5014187;28;20064;-68
2022/11/23 06:23:10;;;;;;;4.13;2.05;;;;;;;20.07;41.85;99651.06;5029386;28;20064;-68
2022/11/23 06:25:37;;;;;;;3.55;2.17;;;;;;;20.19;41.76;99663.44;5025410;28;20036;-68
2022/11/23 06:28:14;;;;;;;6.13;2.10;;;;;;;20.13;41.78;99658.97;5023776;28;20064;-68
2022/11/23 06:30:44;;;;;;;2.25;1.80;;;;;;;20.16;41.67;99663.03;5026299;28;20033;-68
2022/11/23 06:33:11;;;;;;;2.53;1.90;;;;;;;20.17;41.69;99660.19;5041906;28;20048;-69
2022/11/23 06:35:53;;;;;;;2.40;1.90;;;;;;;20.16;41.72;99660.41;5046189;28;20081;-68
2022/11/23 06:38:19;;;;;;;3.90;1.88;;;;;;;20.11;41.70;99661.03;5029889;28;20041;-69
2022/11/23 06:40:44;;;;;;;1.52;1.42;;;;;;;20.20;41.64;99664.22;5026292;28;20130;-68
2022/11/23 06:43:10;;;;;;;3.35;2.00;;;;;;;20.23;41.58;99669.09;5031978;28;22209;-68
2022/11/23 06:45:43;;;;;;;3.13;2.00;;;;;;;20.20;41.72;99666.88;5026468;28;22049;-68
2022/11/23 06:48:12;;;;;;;1.83;1.60;;;;;;;20.18;41.63;99682.13;5032875;28;20040;-68
2022/11/23 06:50:42;;;;;;;2.38;1.67;;;;;;;20.16;41.59;99669.13;5045212;28;20041;-69
2022/11/23 06:53:11;;;;;;;2.65;1.90;;;;;;;20.16;41.84;99674.41;5025537;28;20507;-68
2022/11/23 06:55:42;;;;;;;2.22;2.00;;;;;;;20.23;41.73;99680.47;5026128;28;20050;-68
2022/11/23 06:58:08;;;;;;;1.83;1.67;;;;;;;20.21;41.67;99671.94;5028924;28;20059;-68
2022/11/23 07:00:34;;;;;;;2.75;1.95;;;;;;;20.23;41.65;99679.66;5020739;28;20555;-69
2022/11/23 07:03:01;;;;;;;2.40;1.80;;;;;;;20.21;41.55;99682.53;5017143;28;20614;-68
2022/11/23 07:05:30;;;;;;;2.90;2.00;;;;;;;20.27;41.87;99682.69;5027397;28;20084;-68
2022/11/23 07:07:56;;;;;;;2.30;2.00;;;;;;;20.19;41.87;99687.22;5028891;28;20044;-68
2022/11/23 07:10:25;;;;;;;4.40;2.13;;;;;;;20.26;41.61;99686.38;5029724;28;20507;-68
2022/11/23 07:12:54;;;;;;;2.97;1.98;;;;;;;20.25;41.64;99695.31;5026034;28;20132;-68
2022/11/23 07:15:21;;;;;;;2.55;1.60;;;;;;;20.27;41.62;99695.91;5028891;28;20664;-68
2022/11/23 07:17:49;;;;;;;2.10;1.90;;;;;;;20.26;41.45;99700.41;5032485;28;20088;-68
2022/11/23 07:20:16;;;;;;;2.85;1.90;;;;;;;20.26;41.75;99710.97;5028467;28;20484;-69
2022/11/23 07:22:43;;;;;;;2.63;1.75;;;;;;;20.27;41.75;99717.06;5028183;28;20036;-68
2022/11/23 07:25:10;;;;;;;2.42;1.90;;;;;;;20.23;41.96;99708.75;5031441;28;20029;-68
2022/11/23 07:27:36;;;;;;;2.15;1.73;;;;;;;20.31;41.60;99718.28;5026564;28;20041;-69
2022/11/23 07:30:03;;;;;;;2.55;1.80;;;;;;;20.31;41.50;99713.00;5026478;28;20028;-68
2022/11/23 07:32:29;;;;;;;2.33;1.85;;;;;;;20.32;41.75;99718.09;5028589;28;20125;-68
2022/11/23 07:34:55;;;;;;;3.28;1.70;;;;;;;20.33;41.69;99721.53;5030032;28;20033;-68
2022/11/23 07:37:20;;;;;;;2.17;1.70;;;;;;;20.31;41.50;99721.75;5028138;28;20059;-68
2022/11/23 07:39:46;;;;;;;2.42;1.70;;;;;;;20.33;41.58;99730.28;5025677;28;20037;-68
2022/11/23 07:42:11;;;;;;;2.10;1.60;;;;;;;20.27;41.73;99727.63;5025665;28;20533;-68
2022/11/23 07:44:38;;;;;;;4.10;1.90;;;;;;;20.25;41.85;99721.75;5026846;28;20041;-68
2022/11/23 07:47:07;;;;;;;2.60;1.87;;;;;;;20.32;41.74;99733.94;5023057;28;20071;-68
2022/11/23 07:49:33;;;;;;;1.67;1.50;;;;;;;20.31;41.70;99739.44;5026667;28;20128;-69
2022/11/23 07:51:58;;;;;;;2.35;1.98;;;;;;;20.30;41.81;99740.47;5026771;28;20453;-68
2022/11/23 07:54:24;;;;;;;3.17;1.80;;;;;;;20.31;41.76;99750.03;5028396;28;20030;-69
2022/11/23 07:56:49;;;;;;;2.08;1.45;;;;;;;20.29;41.78;99750.22;5024561;28;20049;-68
2022/11/23 07:59:14;;;;;;;2.88;1.55;;;;;;;20.31;41.81;99750.81;5025418;28;20102;-68
2022/11/23 08:01:40;;;;;;;3.42;1.80;;;;;;;20.36;41.66;99752.84;5024809;28;20040;-68
2022/11/23 08:04:05;;;;;;;2.10;1.67;;;;;;;20.32;41.82;99752.44;5029180;28;20415;-68
2022/11/23 08:06:31;;;;;;;2.97;1.52;;;;;;;20.33;41.49;99748.78;5028063;28;20075;-68
2022/11/23 08:08:58;;;;;;;3.60;1.65;;;;;;;20.33;41.90;99759.34;5027233;28;20044;-68
2022/11/23 08:11:23;;;;;;;2.22;1.60;;;;;;;20.34;41.87;99755.69;5022545;28;20398;-68
2022/11/23 08:13:49;;;;;;;3.45;1.98;;;;;;;20.35;41.66;99762.59;5028543;28;20061;-68
2022/11/23 08:16:14;;;;;;;3.67;1.80;;;;;;;20.31;41.83;99756.13;5030064;28;20033;-68
2022/11/23 08:18:40;;;;;;;2.13;1.60;;;;;;;20.32;41.60;99752.44;5029638;28;20053;-68
2022/11/23 08:21:05;;;;;;;2.22;1.73;;;;;;;20.36;41.92;99758.13;5029782;28;20087;-68
2022/11/23 08:23:31;;;;;;;1.90;1.70;;;;;;;20.39;41.67;99757.72;5031861;28;20041;-68
2022/11/23 08:25:57;;;;;;;2.20;1.75;;;;;;;20.33;41.71;99753.25;5028304;28;20033;-68
2022/11/23 08:28:22;;;;;;;3.60;1.60;;;;;;;20.34;41.79;99760.97;5028388;28;20029;-68
2022/11/23 08:30:48;;;;;;;2.05;1.63;;;;;;;20.34;41.66;99754.88;5029250;28;20044;-69
2022/11/23 08:33:14;;;;;;;2.95;1.63;;;;;;;20.38;41.53;99756.09;5032802;28;20044;-69
2022/11/23 08:35:41;;;;;;;1.40;1.30;;;;;;;20.32;41.79;99760.38;5027478;28;20207;-70
2022/11/23 08:38:08;;;;;;;3.60;1.77;;;;;;;20.40;41.53;99751.41;5025297;28;20049;-69
2022/11/23 08:40:35;;;;;;;2.63;2.10;;;;;;;20.34;41.75;99754.88;5029712;28;20755;-69
2022/11/23 08:43:00;;;;;;;3.97;1.80;;;;;;;20.30;41.97;99754.50;5030718;28;20064;-69
2022/11/23 08:45:26;;;;;;;3.55;1.70;;;;;;;20.36;41.90;99758.13;5028216;28;20471;-68
2022/11/23 08:47:52;;;;;;;2.50;1.70;;;;;;;20.37;41.79;99750.00;5038629;28;20048;-68
2022/11/23 08:50:19;;;;;;;2.70;1.70;;;;;;;20.23;42.12;99759.78;5029762;28;20048;-68
2022/11/23 08:52:44;;;;;;;2.38;1.60;;;;;;;20.26;42.06;99758.56;5031517;28;20151;-68
2022/11/23 08:55:10;;;;;;;2.45;1.50;;;;;;;20.32;42.00;99763.03;5031166;28;20029;-68
2022/11/23 08:57:36;;;;;;;2.75;1.80;;;;;;;20.26;42.26;99766.47;5035875;28;20411;-68
2022/11/23 09:00:04;;;;;;;2.08;1.58;;;;;;;20.32;42.00;99765.66;5033787;28;20044;-68
2022/11/23 09:02:30;;;;;;;3.05;1.60;;;;;;;20.30;42.29;99749.22;5031639;28;20196;-68
2022/11/23 09:04:55;;;;;;;1.70;1.50;;;;;;;20.30;42.08;99756.31;5029452;28;20103;-68
2022/11/23 09:07:21;;;;;;;3.40;1.90;;;;;;;20.26;42.16;99755.09;5034404;28;20075;-68
2022/11/23 09:09:46;;;;;;;4.55;2.03;;;;;;;20.32;41.94;99757.75;5030359;28;20029;-67
2022/11/23 09:12:12;;;;;;;4.72;1.83;;;;;;;20.36;41.74;99755.47;5031244;28;20033;-67
2022/11/23 09:14:37;;;;;;;3.45;1.75;;;;;;;20.36;41.88;99747.56;5043050;28;20545;-68
2022/11/23 09:17:03;;;;;;;2.83;1.70;;;;;;;20.41;41.81;99753.03;5035762;28;20025;-68
2022/11/23 09:19:28;;;;;;;2.45;1.65;;;;;;;20.37;41.93;99754.47;5033841;28;20037;-68
2022/11/23 09:21:54;;;;;;;2.45;1.63;;;;;;;20.41;41.92;99753.03;5034967;28;20043;-67
2022/11/23 09:24:21;;;;;;;2.60;1.75;;;;;;;20.33;41.97;99754.06;5030932;28;20041;-68
2022/11/23 09:26:46;;;;;;;3.13;1.77;;;;;;;20.42;41.65;99757.31;5037434;28;20041;-68
2022/11/23 09:29:12;;;;;;;1.77;1.40;;;;;;;20.41;41.79;99761.78;5034677;28;20091;-68
2022/11/23 09:31:37;;;;;;;2.47;1.52;;;;;;;20.39;41.92;99771.75;5033807;28;20923;-68
2022/11/23 09:34:03;;;;;;;4.38;1.70;;;;;;;20.38;41.89;99756.91;5020895;28;20041;-68
2022/11/23 09:36:29;;;;;;;3.38;1.88;;;;;;;20.38;41.81;99764.00;5027218;28;20056;-68
2022/11/23 09:38:55;;;;;;;3.15;1.70;;;;;;;20.40;41.91;99767.25;5032883;28;20090;-68
2022/11/23 09:41:39;;;;;;;2.80;1.40;;;;;;;20.38;41.89;99766.66;5030581;28;20128;-68
2022/11/23 09:44:15;;;;;;;2.70;1.38;;;;;;;20.41;41.92;99772.38;5030354;28;20649;-68
2022/11/23 09:47:01;;;;;;;2.40;1.80;;;;;;;20.35;42.03;99770.53;5030864;28;20053;-67
2022/11/23 09:49:36;;;;;;;2.08;1.77;;;;;;;20.42;42.12;99765.25;5024995;28;20036;-76
2022/11/23 09:52:02;;;;;;;2.35;1.60;;;;;;;20.69;41.74;99769.41;4974273;28;20079;-77
2022/11/23 09:54:31;;;;;;;3.10;1.90;;;;;;;20.67;41.89;99768.81;5030298;28;20498;-72
2022/11/23 09:56:57;;;;;;;3.80;1.60;;;;;;;20.61;42.19;99772.28;5025140;28;20025;-70
2022/11/23 09:59:28;;;;;;;4.50;1.98;;;;;;;20.61;42.24;99771.47;5024336;28;20044;-71
2022/11/23 10:01:58;;;;;;;3.75;1.80;;;;;;;20.71;42.14;99763.91;5032953;28;20140;-68
2022/11/23 10:04:24;;;;;;;4.82;2.00;;;;;;;20.83;42.02;99762.25;5026407;28;20549;-67
2022/11/23 10:07:06;;;;;;;4.43;2.15;;;;;;;20.88;41.94;99758.94;4999812;28;20029;-68
2022/11/23 10:10:16;;;;;;;5.50;2.03;;;;;;;20.98;41.64;99765.38;5034108;28;20041;-63
2022/11/23 10:12:58;;;;;;;;;;;;;;;21.00;41.69;99762.53;5013356;28;20427;-67
2022/11/23 10:15:39;;;;;;;3.67;2.00;;;;;;;21.04;41.48;99761.09;5026467;28;19990;-63
2022/11/23 10:18:23;;;;;;;9.10;2.75;;;;;;;21.05;41.42;99757.44;5032360;28;20161;-64
2022/11/23 10:21:23;;;;;;;4.05;1.90;;;;;;;21.12;41.39;99755.53;5030497;28;20102;-69
2022/11/23 10:23:53;;;;;;;6.55;2.50;;;;;;;20.92;41.43;99753.00;4991011;28;20045;-64
2022/11/23 10:26:25;;;;;;;6.65;2.20;;;;;;;20.86;41.48;99748.56;5034538;28;20029;-63
2022/11/23 10:28:53;;;;;;;7.60;2.17;;;;;;;20.79;41.46;99745.13;5019746;28;20137;-64
2022/11/23 10:31:22;;;;;;;5.88;2.35;;;;;;;20.63;41.42;99741.16;5029939;28;20037;-65
2022/11/23 10:33:50;;;;;;;8.27;2.78;;;;;;;20.66;41.68;99747.88;5029723;28;20040;-64
2022/11/23 10:36:16;;;;;;;10.45;2.58;;;;;;;20.68;41.70;99743.19;5026986;28;20075;-64
2022/11/23 10:38:41;;;;;;;10.43;2.97;;;;;;;20.65;41.86;99756.84;5013840;28;20067;-64
2022/11/23 10:41:12;;;;;;;6.25;2.30;;;;;;;20.96;41.18;99754.19;5009521;28;20135;-67
2022/11/23 10:43:40;;;;;;;9.50;3.35;;;;;;;21.04;41.08;99753.16;5025450;28;20037;-66
2022/11/23 10:46:28;;;;;;;8.85;2.40;;;;;;;21.15;40.91;99743.69;5032798;28;21743;-65
2022/11/23 10:48:54;;;;;;;5.97;2.38;;;;;;;21.12;41.02;99753.69;5028161;28;20079;-65
2022/11/23 10:51:28;;;;;;;10.70;2.50;;;;;;;21.17;40.54;99744.28;5030045;28;20040;-63
2022/11/23 10:54:20;;;;;;;6.18;2.22;;;;;;;21.24;40.84;99747.72;5029448;28;20059;-65
2022/11/23 10:56:48;;;;;;;10.38;2.55;;;;;;;21.27;40.69;99749.97;4990468;28;20059;-64
2022/11/23 10:59:33;;;;;;;5.97;2.30;;;;;;;21.29;40.64;99748.72;5026803;28;20025;-63
2022/11/23 11:02:20;;;;;;;6.32;2.80;;;;;;;21.30;40.72;99749.53;5024102;28;20724;-65
2022/11/23 11:04:48;;;;;;;7.57;2.60;;;;;;;21.30;40.48;99749.53;5023986;28;20049;-63
2022/11/23 11:07:18;;;;;;;7.05;2.40;;;;;;;21.18;41.04;99738.78;5027035;28;20037;-62
2022/11/23 11:09:55;;;;;;;5.38;2.15;;;;;;;21.21;41.06;99746.31;5028607;28;20491;-62
2022/11/23 11:12:20;;;;;;;6.35;2.60;;;;;;;21.15;41.13;99730.47;5005752;28;20039;-62
2022/11/23 11:15:01;;;;;;;4.95;2.17;;;;;;;21.15;41.24;99741.06;5029842;28;20981;-62
2022/11/23 11:17:32;;;;;;;6.47;2.78;;;;;;;21.27;41.28;99740.19;5024215;28;20036;-66
2022/11/23 11:19:59;;;;;;;5.65;2.50;;;;;;;21.35;40.88;99731.16;5029485;28;20033;-65
2022/11/23 11:22:33;;;;;;;6.13;2.40;;;;;;;21.28;41.44;99727.75;5039782;28;20124;-63
2022/11/23 11:25:02;;;;;;;8.98;2.78;;;;;;;21.18;41.08;99724.75;5040681;28;20047;-64
2022/11/23 11:27:30;;;;;;;6.78;2.47;;;;;;;21.12;41.13;99716.63;5019726;28;20099;-63
2022/11/23 11:30:02;;;;;;;6.32;3.03;;;;;;;21.06;41.29;99714.84;5014057;28;20127;-66
2022/11/23 11:32:36;;;;;;;12.50;3.10;;;;;;;21.17;40.97;99710.69;5030522;28;20032;-64
2022/11/23 11:35:37;;;;;;;8.32;2.72;;;;;;;20.97;41.20;99704.72;5031059;28;20032;-65
2022/11/23 11:38:10;;;;;;;7.65;2.92;;;;;;;20.87;41.40;99699.94;5009460;28;20053;-65
2022/11/23 11:40:57;;;;;;;10.40;3.30;;;;;;;20.78;41.47;99691.41;5031853;28;20029;-65